Time;durP1;ratioP1;P1;durP2;ratioP2;P2;SDS_P1;SDS_P2;PMS_P1;PMS_P2;Temp;Humidity;BMP_temperature;BMP_pressure;BME280_temperature;BME280_humidity;BME280_pressure;Samples;Min_cycle;Max_cycle;Signal;HPM_P1;HPM_P2
2023/07/16 00:00:28;;;;;;;0.30;0.30;;;18.10;99.90;;;;;;5093923;28;20055;-72
2023/07/16 00:02:54;;;;;;;0.60;0.60;;;18.10;99.90;;;;;;5093792;28;20128;-72
2023/07/16 00:05:20;;;;;;;0.40;0.40;;;18.10;99.90;;;;;;5093989;28;20172;-71
2023/07/16 00:07:45;;;;;;;0.37;0.37;;;18.10;99.90;;;;;;5094048;28;20039;-72
2023/07/16 00:10:11;;;;;;;0.20;0.20;;;18.00;99.90;;;;;;5093774;28;20161;-73
2023/07/16 00:12:37;;;;;;;0.30;0.30;;;17.90;99.90;;;;;;5093786;28;20122;-73
2023/07/16 00:15:02;;;;;;;0.40;0.40;;;17.90;99.90;;;;;;5093769;28;20559;-73
2023/07/16 00:17:28;;;;;;;0.30;0.30;;;17.80;99.90;;;;;;5093511;28;20055;-72
2023/07/16 00:19:54;;;;;;;0.30;0.30;;;17.70;99.90;;;;;;5093126;28;20044;-73
2023/07/16 00:22:19;;;;;;;0.57;0.57;;;17.60;99.90;;;;;;5093585;28;20071;-72
2023/07/16 00:24:45;;;;;;;1.13;0.57;;;17.60;99.90;;;;;;5093662;28;20122;-74
2023/07/16 00:27:11;;;;;;;0.30;0.30;;;17.50;99.90;;;;;;5093736;28;20040;-71
2023/07/16 00:29:36;;;;;;;0.30;0.30;;;17.50;99.90;;;;;;5093291;28;20098;-72
2023/07/16 00:32:02;;;;;;;0.30;0.30;;;17.50;99.90;;;;;;5093925;28;20044;-72
2023/07/16 00:34:27;;;;;;;0.20;0.20;;;17.50;99.90;;;;;;5093549;28;20032;-74
2023/07/16 00:36:53;;;;;;;0.37;0.30;;;17.40;99.90;;;;;;5093822;28;20028;-73
2023/07/16 00:39:19;;;;;;;0.27;0.27;;;17.30;99.90;;;;;;5093620;28;20476;-72
2023/07/16 00:41:44;;;;;;;0.40;0.40;;;17.30;99.90;;;;;;5093463;28;20476;-73
2023/07/16 00:44:10;;;;;;;0.30;0.30;;;17.30;99.90;;;;;;5093492;28;20044;-73
2023/07/16 00:46:36;;;;;;;0.23;0.23;;;17.30;99.90;;;;;;5092264;28;20047;-73
2023/07/16 00:49:02;;;;;;;0.30;0.30;;;17.20;99.90;;;;;;5093500;28;20051;-72
2023/07/16 00:51:28;;;;;;;0.30;0.30;;;17.20;99.90;;;;;;5093371;28;20085;-71
2023/07/16 00:53:54;;;;;;;0.40;0.40;;;17.10;99.90;;;;;;5093704;28;20078;-73
2023/07/16 00:56:21;;;;;;;0.20;0.20;;;17.10;99.90;;;;;;5093426;28;20503;-72
2023/07/16 00:58:46;;;;;;;;;;;17.10;99.90;;;;;;5093819;28;20036;-71
2023/07/16 01:01:12;;;;;;;0.30;0.30;;;17.00;99.90;;;;;;5092942;28;19923;-73
2023/07/16 01:03:38;;;;;;;0.30;0.30;;;17.00;99.90;;;;;;5093007;28;20032;-72
2023/07/16 01:06:25;;;;;;;0.30;0.30;;;17.00;99.90;;;;;;5093283;28;20036;-72
2023/07/16 01:09:06;;;;;;;0.20;0.20;;;16.90;99.90;;;;;;5093583;28;20652;-72
2023/07/16 01:11:35;;;;;;;0.30;0.30;;;16.90;99.90;;;;;;5093239;28;20051;-72
2023/07/16 01:14:02;;;;;;;0.30;0.30;;;16.90;99.90;;;;;;5093149;28;20090;-72
2023/07/16 01:16:27;;;;;;;;;;;16.90;99.90;;;;;;5093964;28;20048;-72
2023/07/16 01:18:53;;;;;;;0.30;0.30;;;16.90;99.90;;;;;;5093810;28;19922;-73
2023/07/16 01:21:21;;;;;;;0.43;0.43;;;16.90;99.90;;;;;;5093043;28;20036;-72
2023/07/16 01:23:53;;;;;;;0.40;0.40;;;16.80;99.90;;;;;;5093221;28;20040;-73
2023/07/16 01:26:46;;;;;;;0.30;0.30;;;16.80;99.90;;;;;;5092972;28;20072;-73
2023/07/16 01:29:21;;;;;;;0.30;0.30;;;16.80;99.90;;;;;;5093327;28;20125;-73
2023/07/16 01:31:49;;;;;;;0.45;0.40;;;16.70;99.90;;;;;;5093411;28;20075;-73
2023/07/16 01:34:15;;;;;;;0.30;0.30;;;16.70;99.90;;;;;;5096505;28;20040;-72
2023/07/16 01:36:42;;;;;;;0.30;0.30;;;16.70;99.90;;;;;;5096746;28;20085;-72
2023/07/16 01:39:07;;;;;;;0.30;0.30;;;16.70;99.90;;;;;;5096622;28;20036;-73
2023/07/16 01:41:33;;;;;;;0.50;0.50;;;16.70;99.90;;;;;;5096626;28;20347;-73
2023/07/16 01:43:59;;;;;;;0.20;0.20;;;16.60;99.90;;;;;;5096770;28;20528;-74
2023/07/16 01:46:25;;;;;;;0.40;0.40;;;16.60;99.90;;;;;;5096820;28;20376;-73
2023/07/16 01:48:50;;;;;;;0.30;0.30;;;16.60;99.90;;;;;;5096470;28;20127;-74
2023/07/16 01:51:16;;;;;;;0.40;0.40;;;16.60;99.90;;;;;;5096933;28;20376;-73
2023/07/16 01:53:42;;;;;;;0.30;0.30;;;16.60;99.90;;;;;;5096435;28;20468;-73
2023/07/16 01:56:08;;;;;;;0.30;0.30;;;16.60;99.90;;;;;;5096683;28;20093;-74
2023/07/16 01:58:33;;;;;;;0.30;0.30;;;16.60;99.90;;;;;;5096596;28;20383;-73
2023/07/16 02:00:59;;;;;;;0.50;0.50;;;16.60;99.90;;;;;;5096210;28;20116;-73
2023/07/16 02:03:25;;;;;;;0.40;0.40;;;16.50;99.90;;;;;;5096133;28;20043;-73
2023/07/16 02:05:50;;;;;;;0.40;0.40;;;16.50;99.90;;;;;;5096138;28;20032;-73
2023/07/16 02:08:19;;;;;;;0.30;0.30;;;16.50;99.90;;;;;;5096006;28;20067;-73
2023/07/16 02:10:46;;;;;;;1.75;0.52;;;16.50;99.90;;;;;;5096054;28;20047;-73
2023/07/16 02:13:12;;;;;;;0.45;0.43;;;16.60;99.90;;;;;;5095956;28;20468;-73
2023/07/16 02:15:38;;;;;;;0.50;0.50;;;16.50;99.90;;;;;;5095980;28;20061;-74
2023/07/16 02:18:04;;;;;;;0.40;0.30;;;16.40;99.90;;;;;;5096125;28;20143;-74
2023/07/16 02:20:30;;;;;;;0.20;0.20;;;16.50;99.90;;;;;;5095789;28;20032;-72
2023/07/16 02:22:56;;;;;;;0.30;0.30;;;16.40;99.90;;;;;;5095829;28;20040;-73
2023/07/16 02:25:21;;;;;;;0.40;0.40;;;16.40;99.90;;;;;;5095803;28;20043;-73
2023/07/16 02:27:47;;;;;;;0.30;0.30;;;16.30;99.90;;;;;;5095829;28;20035;-74
2023/07/16 02:30:15;;;;;;;0.30;0.30;;;16.30;99.90;;;;;;5095783;28;20044;-73
2023/07/16 02:32:40;;;;;;;0.30;0.30;;;16.30;99.90;;;;;;5095658;28;20419;-73
2023/07/16 02:35:07;;;;;;;0.90;0.80;;;16.20;99.90;;;;;;5111306;28;20032;-73
2023/07/16 02:37:32;;;;;;;0.63;0.60;;;16.20;99.90;;;;;;5095634;28;20093;-73
2023/07/16 02:39:59;;;;;;;0.50;0.50;;;16.20;99.90;;;;;;5095479;28;20040;-74
2023/07/16 02:42:24;;;;;;;0.43;0.43;;;16.10;99.90;;;;;;5095425;28;20047;-72
2023/07/16 02:44:50;;;;;;;0.50;0.50;;;16.20;99.90;;;;;;5110866;28;20036;-74
2023/07/16 02:47:16;;;;;;;0.30;0.30;;;16.10;99.90;;;;;;5095340;28;20110;-74
2023/07/16 02:49:41;;;;;;;0.57;0.50;;;16.10;99.90;;;;;;5095294;28;20044;-73
2023/07/16 02:52:07;;;;;;;0.43;0.43;;;16.10;99.90;;;;;;5095277;28;20058;-73
2023/07/16 02:54:34;;;;;;;0.60;0.60;;;16.10;99.90;;;;;;5095620;28;20490;-74
2023/07/16 02:57:00;;;;;;;0.88;0.52;;;16.00;99.90;;;;;;5095142;28;20040;-73
2023/07/16 02:59:26;;;;;;;0.70;0.50;;;16.00;99.90;;;;;;5095337;28;20495;-73
2023/07/16 03:01:52;;;;;;;0.40;0.40;;;16.10;99.90;;;;;;5094876;28;20036;-73
2023/07/16 03:04:17;;;;;;;0.30;0.30;;;16.10;99.90;;;;;;5094925;28;20119;-73
2023/07/16 03:06:43;;;;;;;0.50;0.50;;;16.00;99.90;;;;;;5095531;28;20044;-73
2023/07/16 03:09:09;;;;;;;1.30;0.40;;;16.00;99.90;;;;;;5093695;28;20375;-73
2023/07/16 03:11:34;;;;;;;1.30;0.30;;;16.00;99.90;;;;;;5094908;28;20046;-74
2023/07/16 03:14:00;;;;;;;0.60;0.60;;;16.00;99.90;;;;;;5094837;28;20032;-74
2023/07/16 03:16:25;;;;;;;0.37;0.37;;;16.00;99.90;;;;;;5094958;28;20040;-73
2023/07/16 03:18:51;;;;;;;0.50;0.50;;;15.90;99.90;;;;;;5094544;28;20407;-73
2023/07/16 03:21:17;;;;;;;0.30;0.30;;;15.90;99.90;;;;;;5094463;28;20039;-73
2023/07/16 03:23:42;;;;;;;0.50;0.50;;;15.90;99.90;;;;;;5094567;28;20483;-73
2023/07/16 03:26:08;;;;;;;0.40;0.40;;;15.90;99.90;;;;;;5094646;28;20040;-74
2023/07/16 03:28:33;;;;;;;0.40;0.40;;;15.80;99.90;;;;;;5094798;28;20043;-72
2023/07/16 03:30:59;;;;;;;0.27;0.27;;;15.80;99.90;;;;;;5094566;28;20047;-73
2023/07/16 03:33:25;;;;;;;0.60;0.40;;;15.80;99.90;;;;;;5094445;28;20517;-73
2023/07/16 03:35:51;;;;;;;0.30;0.30;;;15.80;99.90;;;;;;5094413;28;20067;-72
2023/07/16 03:38:17;;;;;;;0.43;0.40;;;15.90;99.90;;;;;;5094517;28;20375;-73
2023/07/16 03:40:47;;;;;;;0.60;0.60;;;15.90;99.90;;;;;;5094114;28;20036;-73
2023/07/16 03:43:13;;;;;;;0.40;0.40;;;15.80;99.90;;;;;;5094009;28;20040;-72
2023/07/16 03:45:39;;;;;;;4.72;0.65;;;15.80;99.90;;;;;;5094300;28;20071;-73
2023/07/16 03:48:05;;;;;;;0.30;0.30;;;15.90;99.90;;;;;;5094195;28;20039;-72
2023/07/16 03:50:31;;;;;;;0.60;0.57;;;15.90;99.90;;;;;;5094052;28;20040;-73
2023/07/16 03:52:56;;;;;;;0.40;0.40;;;15.90;99.90;;;;;;5094679;28;20460;-73
2023/07/16 03:55:22;;;;;;;1.13;1.00;;;15.90;99.90;;;;;;5093363;28;20119;-74
2023/07/16 03:57:48;;;;;;;2.73;0.97;;;15.90;99.90;;;;;;5094179;28;20040;-73
2023/07/16 04:00:13;;;;;;;0.43;0.43;;;16.00;99.90;;;;;;5093889;28;20044;-74
2023/07/16 04:02:39;;;;;;;0.50;0.50;;;16.00;99.90;;;;;;5093666;28;20078;-72
2023/07/16 04:05:05;;;;;;;0.40;0.40;;;16.00;99.90;;;;;;5093952;28;20042;-71
2023/07/16 04:07:31;;;;;;;0.38;0.38;;;16.00;99.90;;;;;;5093633;28;20142;-71
2023/07/16 04:09:56;;;;;;;0.30;0.30;;;16.00;99.90;;;;;;5093578;28;20128;-72
2023/07/16 04:12:22;;;;;;;0.30;0.30;;;16.00;99.90;;;;;;5109707;28;20032;-72
2023/07/16 04:14:47;;;;;;;0.40;0.40;;;16.00;99.90;;;;;;5093806;28;20044;-71
2023/07/16 04:17:13;;;;;;;1.17;0.50;;;16.00;99.90;;;;;;5093701;28;20410;-74
2023/07/16 04:19:39;;;;;;;0.30;0.30;;;16.10;99.90;;;;;;5093726;28;20040;-71
2023/07/16 04:22:05;;;;;;;0.70;0.70;;;16.10;99.90;;;;;;5093603;28;20040;-71
2023/07/16 04:24:31;;;;;;;0.30;0.30;;;16.10;99.90;;;;;;5093772;28;20090;-71
2023/07/16 04:26:58;;;;;;;0.43;0.43;;;16.10;99.90;;;;;;5094032;28;20387;-72
2023/07/16 04:29:24;;;;;;;0.82;0.57;;;16.10;99.90;;;;;;5093723;28;20036;-71
2023/07/16 04:31:49;;;;;;;0.60;0.60;;;16.10;99.90;;;;;;5093755;28;20483;-72
2023/07/16 04:34:15;;;;;;;0.40;0.40;;;16.20;99.90;;;;;;5093297;28;20123;-71
2023/07/16 04:36:42;;;;;;;0.43;0.43;;;16.20;99.90;;;;;;5093687;28;20043;-71
2023/07/16 04:39:08;;;;;;;0.43;0.43;;;16.20;99.90;;;;;;5093531;28;20089;-71
2023/07/16 04:41:34;;;;;;;0.30;0.30;;;16.20;99.90;;;;;;5093604;28;20047;-71
2023/07/16 04:43:59;;;;;;;0.30;0.30;;;16.30;99.90;;;;;;5093821;28;20036;-71
2023/07/16 04:46:25;;;;;;;0.67;0.67;;;16.30;99.90;;;;;;5093435;28;20032;-71
2023/07/16 04:48:51;;;;;;;0.40;0.40;;;16.30;99.90;;;;;;5093442;28;20510;-71
2023/07/16 04:51:16;;;;;;;0.50;0.50;;;16.30;99.90;;;;;;5093406;28;20040;-75
2023/07/16 04:53:42;;;;;;;0.30;0.30;;;16.30;99.90;;;;;;5093764;28;20047;-70
2023/07/16 04:56:12;;;;;;;0.87;0.50;;;16.40;99.90;;;;;;5093462;28;20044;-71
2023/07/16 04:58:38;;;;;;;0.82;0.65;;;16.40;99.90;;;;;;5093190;28;20468;-71
2023/07/16 05:01:04;;;;;;;0.57;0.57;;;16.40;99.90;;;;;;5093492;28;20059;-71
2023/07/16 05:03:29;;;;;;;0.50;0.50;;;16.50;99.90;;;;;;5093265;28;20033;-70
2023/07/16 05:05:55;;;;;;;0.50;0.50;;;16.50;99.90;;;;;;5093294;28;20048;-72
2023/07/16 05:08:20;;;;;;;0.40;0.40;;;16.50;99.90;;;;;;5096350;28;20461;-81
2023/07/16 05:10:46;;;;;;;0.43;0.43;;;16.60;99.90;;;;;;5097188;28;20048;-80
2023/07/16 05:13:12;;;;;;;0.90;0.73;;;16.60;99.90;;;;;;5096697;28;20040;-72
2023/07/16 05:15:38;;;;;;;0.50;0.50;;;16.60;99.90;;;;;;5097260;28;20475;-72
2023/07/16 05:18:04;;;;;;;0.30;0.30;;;16.70;99.90;;;;;;5096726;28;20124;-73
2023/07/16 05:20:29;;;;;;;0.40;0.40;;;16.70;99.90;;;;;;5097076;28;20127;-73
2023/07/16 05:22:55;;;;;;;1.13;0.53;;;16.70;99.90;;;;;;5097069;28;20391;-73
2023/07/16 05:25:20;;;;;;;0.30;0.30;;;16.80;99.90;;;;;;5096769;28;20040;-73
2023/07/16 05:27:46;;;;;;;0.60;0.60;;;16.90;99.90;;;;;;5097179;28;20123;-73
2023/07/16 05:30:12;;;;;;;0.33;0.33;;;17.00;99.90;;;;;;5096989;28;20076;-73
2023/07/16 05:32:38;;;;;;;0.30;0.30;;;17.10;99.90;;;;;;5096907;28;20464;-70
2023/07/16 05:35:04;;;;;;;0.30;0.30;;;17.30;99.90;;;;;;5096755;28;20054;-70
2023/07/16 05:37:30;;;;;;;0.30;0.30;;;17.50;99.90;;;;;;5096722;28;20040;-70
2023/07/16 05:39:55;;;;;;;0.40;0.40;;;17.60;99.90;;;;;;5096524;28;20050;-70
2023/07/16 05:42:21;;;;;;;0.40;0.40;;;17.80;99.90;;;;;;5096607;28;20032;-70
2023/07/16 05:44:49;;;;;;;0.30;0.30;;;17.90;99.90;;;;;;5096612;28;20044;-70
2023/07/16 05:47:15;;;;;;;0.43;0.30;;;18.00;99.90;;;;;;5096516;28;20047;-71
2023/07/16 05:49:41;;;;;;;0.70;0.50;;;18.10;99.90;;;;;;5096408;28;20373;-70
2023/07/16 05:52:08;;;;;;;0.47;0.47;;;18.20;99.90;;;;;;5096492;28;20377;-69
2023/07/16 05:54:33;;;;;;;0.45;0.45;;;18.30;99.90;;;;;;5096382;28;20048;-69
2023/07/16 05:57:00;;;;;;;0.57;0.57;;;18.50;99.90;;;;;;5096660;28;20032;-70
2023/07/16 05:59:26;;;;;;;0.40;0.40;;;18.50;99.90;;;;;;5096343;28;20040;-71
2023/07/16 06:01:52;;;;;;;0.53;0.43;;;18.60;99.90;;;;;;5096234;28;20051;-72
2023/07/16 06:04:17;;;;;;;2.37;0.50;;;18.80;99.90;;;;;;5096139;28;20039;-70
2023/07/16 06:06:43;;;;;;;0.40;0.40;;;18.90;99.90;;;;;;5096225;28;20138;-74
2023/07/16 06:09:08;;;;;;;1.00;0.50;;;19.00;99.90;;;;;;5096698;28;20068;-74
2023/07/16 06:11:34;;;;;;;0.60;0.40;;;19.00;99.90;;;;;;5096918;28;20109;-77
2023/07/16 06:14:00;;;;;;;0.33;0.33;;;19.00;99.90;;;;;;5096519;28;20110;-78
2023/07/16 06:16:25;;;;;;;0.47;0.47;;;19.10;99.90;;;;;;5096764;28;20032;-75
2023/07/16 06:18:51;;;;;;;1.07;0.97;;;19.30;99.90;;;;;;5095558;28;20130;-74
2023/07/16 06:21:17;;;;;;;0.30;0.30;;;19.30;99.90;;;;;;5096681;28;20153;-75
2023/07/16 06:23:43;;;;;;;0.30;0.30;;;19.40;99.90;;;;;;5095946;28;20040;-76
2023/07/16 06:26:08;;;;;;;0.50;0.50;;;19.50;99.90;;;;;;5096030;28;20028;-76
2023/07/16 06:28:34;;;;;;;0.47;0.47;;;19.50;99.90;;;;;;5095697;28;20122;-76
2023/07/16 06:30:59;;;;;;;0.77;0.67;;;19.60;99.90;;;;;;5096089;28;20040;-75
2023/07/16 06:33:27;;;;;;;0.30;0.30;;;19.60;99.90;;;;;;5095444;28;20029;-74
2023/07/16 06:35:52;;;;;;;0.30;0.30;;;19.60;99.90;;;;;;5095627;28;20048;-72
2023/07/16 06:38:18;;;;;;;0.33;0.33;;;19.60;99.90;;;;;;5095731;28;20039;-73
2023/07/16 06:40:48;;;;;;;0.50;0.50;;;19.70;99.90;;;;;;5095468;28;20641;-73
2023/07/16 06:43:14;;;;;;;0.38;0.38;;;19.70;99.90;;;;;;5095463;28;20166;-74
2023/07/16 06:45:40;;;;;;;1.15;0.75;;;19.80;99.90;;;;;;5095477;28;20075;-72
2023/07/16 06:48:06;;;;;;;0.43;0.43;;;19.80;99.90;;;;;;5095502;28;20545;-72
2023/07/16 06:50:31;;;;;;;0.77;0.77;;;19.80;99.90;;;;;;5095264;28;20076;-72
2023/07/16 06:52:57;;;;;;;0.40;0.40;;;19.90;99.90;;;;;;5095702;28;20039;-73
2023/07/16 06:55:23;;;;;;;1.40;0.83;;;19.90;99.90;;;;;;5095322;28;20502;-72
2023/07/16 06:57:49;;;;;;;1.93;1.37;;;19.80;99.90;;;;;;5095180;28;20039;-71
2023/07/16 07:00:15;;;;;;;0.40;0.40;;;19.80;99.90;;;;;;5095190;28;20035;-71
2023/07/16 07:02:41;;;;;;;0.40;0.40;;;19.80;99.90;;;;;;5094723;28;20474;-72
2023/07/16 07:05:07;;;;;;;0.63;0.57;;;19.80;99.90;;;;;;5094890;28;20361;-72
2023/07/16 07:07:33;;;;;;;0.40;0.40;;;19.90;99.90;;;;;;5095177;28;20123;-72
2023/07/16 07:09:58;;;;;;;0.47;0.47;;;19.90;99.90;;;;;;5094937;28;20039;-71
2023/07/16 07:12:26;;;;;;;0.53;0.53;;;19.90;99.90;;;;;;5094663;28;20541;-74
2023/07/16 07:14:52;;;;;;;0.43;0.43;;;19.90;99.90;;;;;;5094791;28;20036;-74
2023/07/16 07:17:17;;;;;;;0.50;0.50;;;20.10;99.90;;;;;;5093964;28;20051;-71
2023/07/16 07:19:44;;;;;;;0.30;0.30;;;20.10;99.90;;;;;;5093986;28;20072;-76
2023/07/16 07:22:18;;;;;;;0.57;0.55;;;20.20;99.90;;;;;;5094790;28;20035;-76
2023/07/16 07:24:44;;;;;;;1.25;0.45;;;20.20;99.90;;;;;;5093877;28;20396;-75
2023/07/16 07:27:11;;;;;;;0.82;0.82;;;20.20;99.90;;;;;;5094145;28;20127;-75
2023/07/16 07:29:36;;;;;;;0.30;0.30;;;20.30;99.90;;;;;;5092407;28;20126;-77
2023/07/16 07:32:02;;;;;;;0.60;0.60;;;20.40;99.90;;;;;;5094955;28;20044;-76
2023/07/16 07:34:28;;;;;;;0.23;0.23;;;20.40;99.90;;;;;;5093671;28;20472;-73
2023/07/16 07:36:53;;;;;;;2.53;1.30;;;20.40;99.90;;;;;;5091956;28;20047;-72
2023/07/16 07:39:19;;;;;;;0.40;0.40;;;20.40;99.90;;;;;;5092757;28;20036;-73
2023/07/16 07:41:44;;;;;;;0.50;0.50;;;20.50;99.90;;;;;;5093272;28;20464;-73
2023/07/16 07:44:10;;;;;;;0.53;0.53;;;20.50;99.90;;;;;;5093074;28;20515;-72
2023/07/16 07:46:36;;;;;;;0.27;0.27;;;20.50;99.90;;;;;;5093130;28;20120;-72
2023/07/16 07:49:01;;;;;;;0.63;0.63;;;20.60;99.90;;;;;;5092406;28;20414;-71
2023/07/16 07:51:27;;;;;;;0.40;0.40;;;20.60;99.90;;;;;;5094074;28;20047;-73
2023/07/16 07:53:52;;;;;;;1.13;0.40;;;20.70;99.90;;;;;;5094591;28;20043;-72
2023/07/16 07:56:18;;;;;;;0.37;0.37;;;20.70;99.90;;;;;;5094111;28;20043;-72
2023/07/16 07:58:44;;;;;;;0.40;0.40;;;20.70;99.90;;;;;;5093839;28;20040;-72
2023/07/16 08:01:11;;;;;;;0.40;0.40;;;20.80;99.90;;;;;;5076005;28;20043;-72
2023/07/16 08:03:36;;;;;;;1.33;0.88;;;20.80;99.90;;;;;;5093988;28;20047;-71
2023/07/16 08:06:02;;;;;;;0.63;0.60;;;20.90;99.90;;;;;;5094364;28;20383;-71
2023/07/16 08:08:28;;;;;;;0.60;0.60;;;21.00;99.90;;;;;;5094006;28;20040;-72
2023/07/16 08:10:55;;;;;;;0.33;0.33;;;21.10;99.90;;;;;;5093905;28;20102;-73
2023/07/16 08:13:21;;;;;;;2.92;0.70;;;21.20;99.90;;;;;;5093895;28;20364;-74
2023/07/16 08:15:47;;;;;;;0.68;0.43;;;21.20;99.90;;;;;;5093876;28;20036;-73
2023/07/16 08:18:13;;;;;;;;;;;21.30;99.90;;;;;;5094416;28;20040;-71
2023/07/16 08:20:40;;;;;;;0.30;0.30;;;21.40;99.90;;;;;;5093922;28;20429;-72
2023/07/16 08:23:06;;;;;;;1.75;0.65;;;21.40;99.90;;;;;;5094100;28;20079;-72
2023/07/16 08:25:32;;;;;;;0.30;0.30;;;21.50;99.90;;;;;;5094097;28;20486;-73
2023/07/16 08:28:07;;;;;;;0.30;0.30;;;21.50;99.90;;;;;;5093754;28;20472;-72
2023/07/16 08:30:33;;;;;;;3.10;0.90;;;21.60;99.90;;;;;;5093972;28;20047;-72
2023/07/16 08:32:59;;;;;;;0.30;0.30;;;21.70;99.90;;;;;;5093705;28;20032;-72
2023/07/16 08:35:25;;;;;;;0.47;0.47;;;21.60;99.90;;;;;;5093716;28;20123;-72
2023/07/16 08:37:51;;;;;;;0.40;0.40;;;21.70;99.90;;;;;;5093627;28;20109;-72
2023/07/16 08:40:17;;;;;;;0.50;0.50;;;21.60;99.90;;;;;;5093496;28;20043;-72
2023/07/16 08:42:46;;;;;;;0.30;0.30;;;21.50;99.90;;;;;;5097395;28;20372;-72
2023/07/16 08:45:12;;;;;;;0.82;0.40;;;21.30;99.90;;;;;;5097621;28;20115;-72
2023/07/16 08:47:38;;;;;;;0.60;0.60;;;21.20;99.90;;;;;;5097479;28;20093;-72
2023/07/16 08:50:04;;;;;;;0.30;0.30;;;21.10;99.90;;;;;;5097615;28;20093;-72
2023/07/16 08:52:30;;;;;;;1.02;0.52;;;20.90;99.90;;;;;;5097269;28;20313;-73
2023/07/16 08:54:56;;;;;;;0.30;0.30;;;20.90;99.90;;;;;;5097655;28;20043;-72
2023/07/16 08:57:22;;;;;;;0.30;0.30;;;20.70;99.90;;;;;;5097482;28;20403;-73
2023/07/16 08:59:49;;;;;;;0.35;0.35;;;20.60;99.90;;;;;;5096260;28;20040;-72
2023/07/16 09:02:19;;;;;;;0.40;0.40;;;20.50;99.90;;;;;;5097573;28;20075;-71
2023/07/16 09:04:48;;;;;;;0.28;0.28;;;20.40;99.90;;;;;;5097702;28;20028;-73
2023/07/16 09:07:15;;;;;;;0.60;0.60;;;20.30;99.90;;;;;;5097216;28;20086;-73
2023/07/16 09:09:41;;;;;;;;;;;20.30;99.90;;;;;;5098131;28;20040;-74
2023/07/16 09:12:10;;;;;;;0.82;0.55;;;20.20;99.90;;;;;;5097078;28;20370;-71
2023/07/16 09:14:36;;;;;;;0.60;0.60;;;20.30;99.90;;;;;;5097347;28;20040;-73
2023/07/16 09:17:02;;;;;;;0.67;0.67;;;20.50;99.90;;;;;;5097158;28;20044;-74
2023/07/16 09:19:32;;;;;;;0.43;0.43;;;20.70;99.90;;;;;;5096713;28;20115;-71
2023/07/16 09:21:58;;;;;;;0.30;0.30;;;20.80;99.90;;;;;;5096784;28;20083;-73
2023/07/16 09:24:23;;;;;;;0.43;0.43;;;21.00;99.90;;;;;;5096873;28;20083;-72
2023/07/16 09:26:54;;;;;;;0.40;0.40;;;21.20;99.90;;;;;;5096790;28;20488;-71
2023/07/16 09:29:20;;;;;;;0.60;0.60;;;21.20;99.90;;;;;;5097286;28;20035;-71
2023/07/16 09:31:58;;;;;;;0.40;0.40;;;21.30;99.90;;;;;;5096803;28;20456;-73
2023/07/16 09:34:26;;;;;;;0.52;0.52;;;21.40;99.90;;;;;;5097070;28;20052;-72
2023/07/16 09:36:52;;;;;;;1.52;0.85;;;21.40;99.90;;;;;;5096768;28;20071;-73
2023/07/16 09:39:19;;;;;;;0.50;0.50;;;21.40;99.90;;;;;;5096829;28;20098;-71
2023/07/16 09:41:45;;;;;;;;;;;21.40;99.90;;;;;;5097015;28;20032;-73
2023/07/16 09:44:13;;;;;;;0.40;0.40;;;21.40;99.90;;;;;;5096547;28;19923;-70
2023/07/16 09:46:39;;;;;;;0.38;0.38;;;21.60;99.90;;;;;;5096558;28;20086;-72
2023/07/16 09:49:05;;;;;;;0.32;0.32;;;21.60;99.90;;;;;;5096514;28;20039;-73
2023/07/16 09:51:32;;;;;;;0.55;0.40;;;21.50;99.90;;;;;;5096572;28;20040;-73
2023/07/16 09:54:00;;;;;;;0.30;0.30;;;21.40;99.90;;;;;;5095636;28;20040;-73
2023/07/16 09:56:35;;;;;;;0.40;0.40;;;21.20;99.90;;;;;;5096266;28;20455;-73
2023/07/16 09:59:02;;;;;;;0.85;0.70;;;21.00;99.90;;;;;;5097011;28;20123;-72
2023/07/16 10:01:29;;;;;;;0.88;0.60;;;20.90;99.90;;;;;;5096237;28;20036;-72
2023/07/16 10:03:55;;;;;;;0.45;0.45;;;20.80;99.90;;;;;;5095094;28;20458;-72
2023/07/16 10:06:21;;;;;;;1.30;1.17;;;21.00;99.90;;;;;;5096201;28;20079;-71
2023/07/16 10:08:50;;;;;;;0.43;0.43;;;21.30;99.90;;;;;;5096026;28;20122;-74
2023/07/16 10:11:19;;;;;;;1.05;0.57;;;21.60;99.90;;;;;;5095781;28;20054;-68
2023/07/16 10:13:50;;;;;;;0.43;0.43;;;21.80;99.90;;;;;;5095927;28;20473;-69
2023/07/16 10:16:23;;;;;;;0.68;0.47;;;21.90;99.90;;;;;;5095682;28;20089;-69
2023/07/16 10:18:53;;;;;;;0.30;0.30;;;22.10;99.90;;;;;;5095495;28;20147;-70
2023/07/16 10:21:24;;;;;;;0.30;0.30;;;22.00;99.90;;;;;;5095808;28;20082;-71
2023/07/16 10:23:59;;;;;;;0.57;0.57;;;22.00;99.90;;;;;;5096307;28;20047;-69
2023/07/16 10:26:29;;;;;;;0.20;0.20;;;21.90;99.90;;;;;;5096047;28;20044;-71
2023/07/16 10:28:55;;;;;;;0.43;0.43;;;21.90;99.90;;;;;;5095589;28;20463;-70
2023/07/16 10:31:25;;;;;;;0.30;0.30;;;21.90;99.90;;;;;;5095717;28;20067;-70
2023/07/16 10:34:00;;;;;;;0.63;0.50;;;21.90;99.90;;;;;;5095569;28;20435;-70
2023/07/16 10:36:26;;;;;;;0.50;0.50;;;21.90;99.90;;;;;;5095654;28;20044;-70
2023/07/16 10:38:52;;;;;;;0.30;0.30;;;21.70;99.90;;;;;;5095863;28;20039;-70
2023/07/16 10:41:17;;;;;;;0.40;0.40;;;21.50;99.90;;;;;;5095634;28;20372;-70
2023/07/16 10:43:43;;;;;;;0.40;0.40;;;21.50;99.90;;;;;;5095561;28;20032;-72
2023/07/16 10:46:09;;;;;;;0.30;0.30;;;21.30;99.90;;;;;;5095215;28;20532;-70
2023/07/16 10:48:35;;;;;;;0.60;0.60;;;21.10;99.90;;;;;;5095169;28;20047;-69
2023/07/16 10:51:00;;;;;;;0.30;0.30;;;21.10;99.90;;;;;;5095750;28;20376;-69
2023/07/16 10:53:26;;;;;;;0.97;0.87;;;20.90;99.90;;;;;;5095271;28;20371;-71
2023/07/16 10:55:52;;;;;;;0.60;0.60;;;20.90;99.90;;;;;;5094911;28;20036;-69
2023/07/16 10:58:18;;;;;;;1.77;0.80;;;21.10;99.90;;;;;;5095430;28;20044;-69
2023/07/16 11:00:45;;;;;;;0.55;0.30;;;21.30;99.90;;;;;;5095210;28;20044;-71
2023/07/16 11:03:10;;;;;;;;;;;21.40;99.90;;;;;;5095455;28;20486;-70
2023/07/16 11:05:36;;;;;;;0.43;0.43;;;21.60;99.90;;;;;;5094989;28;19967;-70
2023/07/16 11:08:02;;;;;;;0.67;0.57;;;21.80;99.90;;;;;;5095016;28;20123;-70
2023/07/16 11:10:29;;;;;;;0.40;0.40;;;21.90;99.90;;;;;;5095033;28;20043;-72
2023/07/16 11:12:55;;;;;;;0.30;0.30;;;22.00;99.90;;;;;;5094919;28;20286;-73
2023/07/16 11:15:34;;;;;;;1.25;0.60;;;22.10;99.90;;;;;;5094874;28;20118;-73
2023/07/16 11:18:01;;;;;;;0.77;0.75;;;22.10;99.90;;;;;;5094690;28;20375;-72
2023/07/16 11:20:27;;;;;;;0.40;0.40;;;22.20;99.90;;;;;;5094908;28;20032;-71
2023/07/16 11:22:52;;;;;;;0.50;0.50;;;22.20;99.90;;;;;;5093367;28;20062;-71
2023/07/16 11:25:19;;;;;;;1.57;0.50;;;22.20;99.90;;;;;;5095016;28;20036;-71
2023/07/16 11:27:45;;;;;;;0.40;0.40;;;22.20;99.90;;;;;;5094558;28;20072;-74
2023/07/16 11:30:11;;;;;;;0.63;0.53;;;22.10;99.90;;;;;;5093499;28;20079;-70
2023/07/16 11:32:42;;;;;;;0.30;0.30;;;22.00;99.90;;;;;;5094395;28;20071;-73
2023/07/16 11:35:08;;;;;;;0.40;0.40;;;21.90;99.90;;;;;;5094605;28;20039;-71
2023/07/16 11:37:35;;;;;;;0.60;0.60;;;21.80;99.90;;;;;;5094266;28;20127;-72
2023/07/16 11:40:04;;;;;;;0.35;0.35;;;22.00;99.90;;;;;;5094398;28;20475;-73
2023/07/16 11:42:39;;;;;;;0.43;0.43;;;22.20;99.90;;;;;;5093151;28;20387;-73
2023/07/16 11:45:15;;;;;;;0.40;0.40;;;22.30;99.90;;;;;;5094239;28;20383;-72
2023/07/16 11:47:40;;;;;;;0.30;0.30;;;22.40;99.90;;;;;;5094085;28;20081;-71
2023/07/16 11:50:07;;;;;;;0.30;0.30;;;22.50;99.90;;;;;;5094180;28;20028;-71
2023/07/16 11:52:32;;;;;;;0.38;0.32;;;22.50;99.90;;;;;;5091409;28;20319;-72
2023/07/16 11:55:03;;;;;;;0.67;0.43;;;22.40;99.90;;;;;;5093445;28;20044;-72
2023/07/16 11:57:29;;;;;;;0.30;0.30;;;22.30;99.90;;;;;;5093935;28;20384;-72
2023/07/16 11:59:55;;;;;;;0.30;0.30;;;22.10;99.90;;;;;;5093656;28;20039;-69
2023/07/16 12:02:21;;;;;;;0.60;0.60;;;22.00;99.90;;;;;;5093440;28;20040;-71
2023/07/16 12:04:47;;;;;;;0.20;0.20;;;21.80;99.90;;;;;;5093865;28;20047;-72
2023/07/16 12:07:13;;;;;;;0.50;0.40;;;21.70;99.90;;;;;;5093864;28;20093;-71
2023/07/16 12:09:38;;;;;;;1.53;0.60;;;21.80;99.90;;;;;;5093634;28;20040;-72
2023/07/16 12:12:05;;;;;;;0.40;0.40;;;21.90;99.90;;;;;;5093468;28;20388;-70
2023/07/16 12:14:31;;;;;;;0.30;0.30;;;21.90;99.90;;;;;;5093453;28;20040;-71
2023/07/16 12:16:57;;;;;;;0.50;0.50;;;21.90;99.90;;;;;;5092610;28;20452;-72
2023/07/16 12:19:22;;;;;;;0.30;0.30;;;21.80;99.90;;;;;;5093640;28;20123;-72
2023/07/16 12:21:48;;;;;;;0.40;0.40;;;21.80;99.90;;;;;;5092499;28;20047;-72
2023/07/16 12:24:14;;;;;;;0.40;0.40;;;21.80;99.90;;;;;;5093669;28;20039;-72
2023/07/16 12:26:40;;;;;;;0.50;0.50;;;21.70;99.90;;;;;;5093659;28;20472;-71
2023/07/16 12:29:05;;;;;;;0.30;0.30;;;21.60;99.90;;;;;;5093506;28;20044;-71
2023/07/16 12:31:31;;;;;;;0.40;0.40;;;21.60;99.90;;;;;;5093516;28;20510;-73
2023/07/16 12:33:59;;;;;;;0.50;0.43;;;21.70;99.90;;;;;;5093747;28;20044;-71
2023/07/16 12:36:24;;;;;;;0.30;0.30;;;21.80;99.90;;;;;;5092902;28;20043;-72
2023/07/16 12:38:50;;;;;;;0.40;0.40;;;21.90;99.90;;;;;;5093816;28;20487;-72
2023/07/16 12:41:16;;;;;;;0.43;0.43;;;21.90;99.90;;;;;;5093585;28;20028;-71
2023/07/16 12:43:42;;;;;;;0.77;0.77;;;21.90;99.90;;;;;;5093699;28;20032;-71